Terminal Aerodrome Forecast
Issued by NWS Austin/San Antonio, TX

Home | Current Version | Previous Version | Text Only | Print | Product List | Glossary On
Versions: 1 2 3 4 5 6 7 8 9 10 11 12 13
000
FTUS44 KEWX 281700
TAFSAT
TAF
KSAT 281730Z 2818/2924 21008KT P6SM FEW100 SCT250
     FM282000 19009KT P6SM FEW100 SCT250
     FM290100 17005KT P6SM FEW100 SCT250
     FM290900 20004KT 1SM BR SCT003 SCT100 SCT250
      TEMPO 2911/2915 BKN003
     FM291600 VRB03KT P6SM SCT100 SCT250
     FM292300 02007KT P6SM SCT080 BKN200=

USA.gov is the U.S. government's official web portal to all federal, state and local government web resources and services.